Time;durP1;ratioP1;P1;durP2;ratioP2;P2;SDS_P1;SDS_P2;PMS_P1;PMS_P2;Temp;Humidity;BMP_temperature;BMP_pressure;BME280_temperature;BME280_humidity;BME280_pressure;Samples;Min_cycle;Max_cycle;Signal;HPM_P1;HPM_P2
2023/01/26 00:00:30;;;;;;;0.00;0.00;;;2.00;92.20;;;;;;4969431;28;20042;-70
2023/01/26 00:02:56;;;;;;;0.65;0.65;;;2.00;92.20;;;;;;4968513;28;20126;-71
2023/01/26 00:05:21;;;;;;;0.03;0.03;;;2.00;92.20;;;;;;4969632;28;20497;-70
2023/01/26 00:07:47;;;;;;;0.10;0.10;;;1.90;92.00;;;;;;4969269;28;20149;-70
2023/01/26 00:10:13;;;;;;;0.10;0.10;;;2.00;92.00;;;;;;4969319;28;20089;-70
2023/01/26 00:12:39;;;;;;;0.00;0.00;;;2.00;92.00;;;;;;4967924;28;20522;-70
2023/01/26 00:15:05;;;;;;;0.55;0.55;;;1.90;92.20;;;;;;4969200;28;20031;-70
2023/01/26 00:17:31;;;;;;;0.20;0.20;;;1.90;92.20;;;;;;4969322;28;20798;-70
2023/01/26 00:19:57;;;;;;;0.00;0.00;;;1.90;92.10;;;;;;4969491;28;20142;-70
2023/01/26 00:22:25;;;;;;;0.00;0.00;;;2.00;92.20;;;;;;4968179;28;20047;-70
2023/01/26 00:24:50;;;;;;;0.40;0.40;;;2.00;92.20;;;;;;4968155;28;20730;-71
2023/01/26 00:27:16;;;;;;;0.08;0.08;;;2.00;92.30;;;;;;4969294;28;20046;-70
2023/01/26 00:29:42;;;;;;;0.00;0.00;;;2.00;92.30;;;;;;4969240;28;20420;-71
2023/01/26 00:32:08;;;;;;;1.13;0.93;;;2.10;92.30;;;;;;4968256;28;20043;-70
2023/01/26 00:34:33;;;;;;;0.10;0.10;;;2.10;92.30;;;;;;4968495;28;20046;-71
2023/01/26 00:36:59;;;;;;;1.85;0.63;;;2.10;92.30;;;;;;4969203;28;20408;-71
2023/01/26 00:39:24;;;;;;;0.05;0.05;;;2.10;92.30;;;;;;4968728;28;20412;-71
2023/01/26 00:42:05;;;;;;;0.00;0.00;;;2.10;92.30;;;;;;4968981;28;20492;-71
2023/01/26 00:44:31;;;;;;;0.10;0.10;;;2.10;92.20;;;;;;4965602;28;20039;-70
2023/01/26 00:46:57;;;;;;;0.03;0.03;;;2.10;92.30;;;;;;4968519;28;20049;-70
2023/01/26 00:49:23;;;;;;;0.00;0.00;;;2.10;92.30;;;;;;4939805;28;20484;-70
2023/01/26 00:51:48;;;;;;;0.63;0.63;;;2.10;92.20;;;;;;4972788;28;20054;-71
2023/01/26 00:54:14;;;;;;;3.13;1.75;;;2.10;92.30;;;;;;4968638;28;20070;-71
2023/01/26 00:56:39;;;;;;;1.00;0.90;;;2.10;92.30;;;;;;4934118;28;20543;-70
2023/01/26 00:59:05;;;;;;;0.00;0.00;;;2.10;92.30;;;;;;4956362;28;20043;-71
2023/01/26 01:01:31;;;;;;;0.10;0.10;;;2.20;92.30;;;;;;4953827;28;20416;-70
2023/01/26 01:03:56;;;;;;;0.03;0.03;;;2.20;92.30;;;;;;4953946;28;20078;-70
2023/01/26 01:06:22;;;;;;;0.10;0.10;;;2.10;92.30;;;;;;4967245;28;20047;-70
2023/01/26 01:08:48;;;;;;;0.00;0.00;;;2.20;92.20;;;;;;4973423;28;20051;-70
2023/01/26 01:11:13;;;;;;;0.10;0.10;;;2.20;92.30;;;;;;4972580;28;20047;-70
2023/01/26 01:13:39;;;;;;;0.10;0.10;;;2.20;92.20;;;;;;4971683;28;20126;-70
2023/01/26 01:16:11;;;;;;;0.10;0.10;;;2.20;92.10;;;;;;4963778;28;20110;-71
2023/01/26 01:18:37;;;;;;;0.55;0.55;;;2.20;92.20;;;;;;4954134;28;20062;-70
2023/01/26 01:21:10;;;;;;;0.00;0.00;;;2.20;92.30;;;;;;4972848;28;20051;-70
2023/01/26 01:23:37;;;;;;;0.10;0.10;;;2.20;92.30;;;;;;4964490;28;20068;-71
2023/01/26 01:26:03;;;;;;;0.00;0.00;;;2.20;92.30;;;;;;4954320;28;20047;-70
2023/01/26 01:28:29;;;;;;;3.55;0.80;;;2.20;92.40;;;;;;4936692;28;20492;-71
2023/01/26 01:30:55;;;;;;;0.00;0.00;;;2.20;92.40;;;;;;4937364;28;20055;-70
2023/01/26 01:33:24;;;;;;;0.00;0.00;;;2.20;92.50;;;;;;4939651;28;20055;-70
2023/01/26 01:36:07;;;;;;;0.63;0.63;;;2.20;92.50;;;;;;4972369;28;20193;-70
2023/01/26 01:38:33;;;;;;;0.10;0.10;;;2.20;92.60;;;;;;4962561;28;20050;-70
2023/01/26 01:40:59;;;;;;;0.10;0.10;;;2.20;92.60;;;;;;4954886;28;20043;-71
2023/01/26 01:43:26;;;;;;;0.20;0.20;;;2.20;92.60;;;;;;4955289;28;20073;-71
2023/01/26 01:45:53;;;;;;;0.28;0.28;;;2.20;92.60;;;;;;4967666;28;20047;-71
2023/01/26 01:48:28;;;;;;;0.00;0.00;;;2.30;92.80;;;;;;4936042;29;20055;-70
2023/01/26 01:50:57;;;;;;;0.00;0.00;;;2.30;92.80;;;;;;4948482;28;20062;-70
2023/01/26 01:53:29;;;;;;;0.00;0.00;;;2.30;92.70;;;;;;4972542;28;20046;-70
2023/01/26 01:55:58;;;;;;;0.95;0.95;;;2.30;92.70;;;;;;4953029;28;20054;-70
2023/01/26 01:58:28;;;;;;;0.00;0.00;;;2.30;92.70;;;;;;4971809;28;20047;-70
2023/01/26 02:00:54;;;;;;;0.00;0.00;;;2.40;92.70;;;;;;4971705;28;20145;-70
2023/01/26 02:03:20;;;;;;;0.17;0.17;;;2.40;92.80;;;;;;4972458;28;20508;-70
2023/01/26 02:05:51;;;;;;;1.55;1.45;;;2.40;92.80;;;;;;4968668;28;20527;-70
2023/01/26 02:08:20;;;;;;;0.10;0.10;;;2.40;92.90;;;;;;4952942;28;20047;-70
2023/01/26 02:10:47;;;;;;;0.00;0.00;;;2.40;92.90;;;;;;4970721;28;20081;-70
2023/01/26 02:13:14;;;;;;;0.00;0.00;;;2.40;93.00;;;;;;4958970;28;20090;-70
2023/01/26 02:15:40;;;;;;;0.63;0.63;;;2.40;92.90;;;;;;4936963;28;20568;-70
2023/01/26 02:18:07;;;;;;;0.30;0.30;;;2.40;92.90;;;;;;4972410;28;20125;-70
2023/01/26 02:20:32;;;;;;;0.10;0.10;;;2.40;92.90;;;;;;4970374;28;20508;-70
2023/01/26 02:23:36;;;;;;;0.00;0.00;;;2.50;93.00;;;;;;4972117;28;20078;-70
2023/01/26 02:26:16;;;;;;;0.47;0.47;;;2.50;93.00;;;;;;4971487;28;20050;-71
2023/01/26 02:28:44;;;;;;;0.10;0.10;;;2.60;93.00;;;;;;4954285;28;20523;-70
2023/01/26 02:31:10;;;;;;;0.00;0.00;;;2.60;93.00;;;;;;4935730;29;20059;-70
2023/01/26 02:33:36;;;;;;;0.32;0.32;;;2.60;92.90;;;;;;4952490;28;20406;-70
2023/01/26 02:36:03;;;;;;;0.10;0.10;;;2.60;92.90;;;;;;4952277;28;20050;-69
2023/01/26 02:38:39;;;;;;;0.00;0.00;;;2.60;92.90;;;;;;4968467;28;20097;-70
2023/01/26 02:44:02;;;;;;;0.10;0.10;;;2.60;92.90;;;;;;4970594;28;20086;-70
2023/01/26 02:46:28;;;;;;;0.20;0.20;;;2.70;92.90;;;;;;4954594;28;20126;-70
2023/01/26 02:51:38;;;;;;;0.00;0.00;;;2.70;92.80;;;;;;4971299;28;20050;-70
2023/01/26 02:54:04;;;;;;;0.00;0.00;;;2.70;92.80;;;;;;4971455;28;20097;-70
2023/01/26 02:56:30;;;;;;;0.00;0.00;;;2.70;92.70;;;;;;4969182;28;20046;-70
2023/01/26 02:58:55;;;;;;;0.00;0.00;;;2.70;92.80;;;;;;4952162;28;20055;-70
2023/01/26 03:01:21;;;;;;;0.00;0.00;;;2.70;92.80;;;;;;4934920;29;20059;-70
2023/01/26 03:03:46;;;;;;;0.00;0.00;;;2.70;92.70;;;;;;4953637;28;20047;-71
2023/01/26 03:06:12;;;;;;;0.08;0.08;;;2.80;92.70;;;;;;4970355;28;20042;-70
2023/01/26 03:08:38;;;;;;;0.47;0.38;;;2.80;92.70;;;;;;4971078;28;20492;-70
2023/01/26 03:11:05;;;;;;;0.00;0.00;;;2.80;92.70;;;;;;4970479;28;20046;-70
2023/01/26 03:13:31;;;;;;;0.05;0.05;;;2.80;92.60;;;;;;4953810;28;20105;-70
2023/01/26 03:16:01;;;;;;;0.30;0.30;;;2.90;92.60;;;;;;4944636;29;20050;-70
2023/01/26 03:29:26;;;;;;;0.00;0.00;;;2.90;92.70;;;;;;4951960;28;20062;-70
2023/01/26 03:31:53;;;;;;;0.22;0.22;;;2.90;92.70;;;;;;4970808;28;20097;-70
2023/01/26 03:34:19;;;;;;;0.10;0.10;;;3.00;92.70;;;;;;4970125;28;20043;-70
2023/01/26 03:36:45;;;;;;;0.00;0.00;;;3.00;92.70;;;;;;4970638;28;20047;-70
2023/01/26 03:41:06;;;;;;;0.00;0.00;;;3.00;92.70;;;;;;4970491;28;20082;-70
2023/01/26 03:58:22;;;;;;;0.00;0.00;;;3.20;92.60;;;;;;4951186;28;20086;-70
2023/01/26 04:00:51;;;;;;;0.05;0.05;;;3.20;92.60;;;;;;4917785;28;20090;-70
2023/01/26 04:08:48;;;;;;;0.00;0.00;;;3.30;92.60;;;;;;4955355;28;20051;-68
2023/01/26 04:11:13;;;;;;;0.00;0.00;;;3.40;92.60;;;;;;4959491;28;20128;-68
2023/01/26 04:21:51;;;;;;;0.00;0.00;;;3.50;92.60;;;;;;4954731;28;20043;-68
2023/01/26 04:24:20;;;;;;;0.63;0.63;;;3.60;92.50;;;;;;4984280;28;20101;-68
2023/01/26 04:26:46;;;;;;;0.10;0.10;;;3.60;92.50;;;;;;4971175;28;20050;-68
2023/01/26 04:29:13;;;;;;;0.00;0.00;;;3.60;92.50;;;;;;4954000;28;20051;-68
2023/01/26 04:31:40;;;;;;;0.00;0.00;;;3.60;92.50;;;;;;4935475;28;20556;-69
2023/01/26 04:34:09;;;;;;;0.00;0.00;;;3.70;92.40;;;;;;4960100;28;20569;-68
2023/01/26 04:36:35;;;;;;;0.00;0.00;;;3.70;92.40;;;;;;4954653;28;20043;-68
2023/01/26 04:39:00;;;;;;;0.00;0.00;;;3.70;92.30;;;;;;4957330;28;20121;-68
2023/01/26 04:41:28;;;;;;;0.00;0.00;;;3.70;92.30;;;;;;4956297;28;20635;-68
2023/01/26 04:43:53;;;;;;;0.00;0.00;;;3.70;92.30;;;;;;4971026;28;20082;-68
2023/01/26 04:46:19;;;;;;;0.00;0.00;;;3.70;92.20;;;;;;4956720;28;20043;-68
2023/01/26 04:48:45;;;;;;;0.00;0.00;;;3.70;92.20;;;;;;4955608;28;20042;-68
2023/01/26 04:51:16;;;;;;;0.00;0.00;;;3.70;92.20;;;;;;4972134;28;20054;-67
2023/01/26 04:53:42;;;;;;;0.93;0.93;;;3.70;92.20;;;;;;4967596;28;20054;-64
2023/01/26 04:56:16;;;;;;;0.00;0.00;;;3.70;92.10;;;;;;4971973;28;20414;-65
2023/01/26 04:58:42;;;;;;;0.00;0.00;;;3.60;92.00;;;;;;4956378;28;20066;-67
2023/01/26 05:01:07;;;;;;;0.38;0.38;;;3.60;92.10;;;;;;4955526;28;20047;-68
2023/01/26 05:03:33;;;;;;;0.00;0.00;;;3.60;92.10;;;;;;4973366;28;20042;-68
2023/01/26 05:05:58;;;;;;;0.05;0.05;;;3.60;92.10;;;;;;4967251;28;20038;-67
2023/01/26 05:08:24;;;;;;;0.00;0.00;;;3.60;92.20;;;;;;4967426;28;20058;-68
2023/01/26 05:10:51;;;;;;;0.00;0.00;;;3.60;92.20;;;;;;4938262;28;20055;-68
2023/01/26 05:13:16;;;;;;;0.00;0.00;;;3.60;92.20;;;;;;4971814;28;20513;-68
2023/01/26 05:15:42;;;;;;;0.10;0.10;;;3.60;92.20;;;;;;4968805;28;20090;-68
2023/01/26 05:18:09;;;;;;;3.00;1.10;;;3.60;92.20;;;;;;4970508;28;20125;-68
2023/01/26 05:20:35;;;;;;;0.03;0.03;;;3.60;92.20;;;;;;4960334;28;20058;-67
2023/01/26 05:23:00;;;;;;;0.00;0.00;;;3.60;92.30;;;;;;4955858;28;20047;-70
2023/01/26 05:25:26;;;;;;;0.00;0.00;;;3.60;92.40;;;;;;4968565;28;20059;-70
2023/01/26 05:27:52;;;;;;;0.82;0.82;;;3.60;92.40;;;;;;4935654;28;20504;-70
2023/01/26 05:30:19;;;;;;;0.30;0.30;;;3.60;92.50;;;;;;4971598;28;20070;-70
2023/01/26 05:32:45;;;;;;;0.00;0.00;;;3.70;92.50;;;;;;4971733;28;20073;-68
2023/01/26 05:35:10;;;;;;;0.10;0.10;;;3.70;92.60;;;;;;4971630;28;20503;-66
2023/01/26 05:37:36;;;;;;;0.00;0.00;;;3.80;92.60;;;;;;4972300;28;20053;-68
2023/01/26 05:40:02;;;;;;;3.10;2.55;;;3.90;92.70;;;;;;4954161;28;20097;-67
2023/01/26 05:42:28;;;;;;;0.00;0.00;;;4.00;92.70;;;;;;4968790;28;20635;-67
2023/01/26 05:44:54;;;;;;;0.00;0.00;;;4.10;92.70;;;;;;4961123;28;20126;-67
2023/01/26 05:47:20;;;;;;;0.00;0.00;;;4.10;92.70;;;;;;4958218;28;20094;-67
2023/01/26 05:49:45;;;;;;;0.00;0.00;;;4.20;92.70;;;;;;4957733;28;20055;-70
2023/01/26 05:52:14;;;;;;;0.00;0.00;;;4.30;92.80;;;;;;4971393;28;20073;-68
2023/01/26 05:54:40;;;;;;;0.00;0.00;;;4.40;92.80;;;;;;4970277;28;20125;-69
2023/01/26 05:57:07;;;;;;;0.00;0.00;;;4.50;92.70;;;;;;4960030;28;20266;-68
2023/01/26 05:59:32;;;;;;;0.05;0.05;;;4.60;92.80;;;;;;4934835;28;20578;-68
2023/01/26 06:01:58;;;;;;;1.85;1.55;;;4.60;92.60;;;;;;4951783;28;20103;-69
2023/01/26 06:04:24;;;;;;;0.03;0.03;;;4.70;92.60;;;;;;4952232;28;20098;-67
2023/01/26 06:06:54;;;;;;;0.00;0.00;;;4.70;92.70;;;;;;4960867;28;20129;-68
2023/01/26 06:09:21;;;;;;;0.00;0.00;;;4.70;92.60;;;;;;4960575;28;20044;-68
2023/01/26 06:11:46;;;;;;;0.00;0.00;;;4.70;92.60;;;;;;4970512;28;20051;-68
2023/01/26 06:14:12;;;;;;;0.28;0.28;;;4.70;92.50;;;;;;4970712;28;20090;-68
2023/01/26 06:16:38;;;;;;;0.00;0.00;;;4.80;92.50;;;;;;4970750;28;20063;-68
2023/01/26 06:19:03;;;;;;;5.05;2.15;;;4.80;92.40;;;;;;4970781;28;20454;-68
2023/01/26 06:21:32;;;;;;;0.00;0.00;;;4.80;92.40;;;;;;4969615;28;20047;-68
2023/01/26 06:23:58;;;;;;;0.00;0.00;;;4.70;92.40;;;;;;4969641;28;20043;-65
2023/01/26 06:26:24;;;;;;;0.00;0.00;;;4.70;92.30;;;;;;4966138;28;20046;-68
2023/01/26 06:28:51;;;;;;;1.30;1.20;;;4.80;92.20;;;;;;4953628;28;20412;-68
2023/01/26 06:31:17;;;;;;;0.10;0.10;;;4.80;92.20;;;;;;4961485;28;20058;-69
2023/01/26 06:33:42;;;;;;;0.00;0.00;;;4.80;92.30;;;;;;4947380;28;20047;-69
2023/01/26 06:36:10;;;;;;;0.00;0.00;;;4.80;92.30;;;;;;4951602;28;20051;-68
2023/01/26 06:38:37;;;;;;;0.00;0.00;;;4.70;92.40;;;;;;4964343;28;20070;-69
2023/01/26 06:41:04;;;;;;;0.00;0.00;;;4.70;92.20;;;;;;4970071;28;20047;-69
2023/01/26 06:43:32;;;;;;;0.00;0.00;;;4.70;92.20;;;;;;4953967;28;20108;-68
2023/01/26 06:45:58;;;;;;;0.00;0.00;;;4.70;92.30;;;;;;4937613;28;20047;-69
2023/01/26 06:48:28;;;;;;;0.10;0.10;;;4.70;92.20;;;;;;4968988;28;20046;-70
2023/01/26 06:51:04;;;;;;;0.00;0.00;;;4.70;92.20;;;;;;4946063;28;20054;-68
2023/01/26 06:53:38;;;;;;;0.00;0.00;;;4.70;92.20;;;;;;4966783;28;20696;-69
2023/01/26 06:56:04;;;;;;;0.00;0.00;;;4.70;92.20;;;;;;4936377;28;20094;-70
2023/01/26 06:58:30;;;;;;;0.00;0.00;;;4.70;92.10;;;;;;4952201;28;20078;-71
2023/01/26 07:00:56;;;;;;;0.10;0.10;;;4.70;92.10;;;;;;4963731;28;20708;-69
2023/01/26 07:03:22;;;;;;;0.00;0.00;;;4.70;92.00;;;;;;4943647;28;20047;-69
2023/01/26 07:05:47;;;;;;;0.10;0.10;;;4.70;92.00;;;;;;4920444;28;20054;-70
2023/01/26 07:08:13;;;;;;;0.00;0.00;;;4.70;92.00;;;;;;4968666;28;20039;-69
2023/01/26 07:10:38;;;;;;;0.00;0.00;;;4.70;92.00;;;;;;4970392;28;20042;-69
2023/01/26 07:13:05;;;;;;;0.00;0.00;;;4.70;92.00;;;;;;4954559;28;20050;-69
2023/01/26 07:15:31;;;;;;;0.10;0.10;;;4.70;92.00;;;;;;4955867;28;20051;-69
2023/01/26 07:17:57;;;;;;;0.00;0.00;;;4.70;92.00;;;;;;4957366;28;20042;-67
2023/01/26 07:20:23;;;;;;;0.00;0.00;;;4.60;91.90;;;;;;4967362;28;20078;-69
2023/01/26 07:22:49;;;;;;;0.00;0.00;;;4.60;92.00;;;;;;4961922;28;20078;-68
2023/01/26 07:25:15;;;;;;;0.00;0.00;;;4.70;92.10;;;;;;4955636;28;20576;-68
2023/01/26 07:27:41;;;;;;;26.35;1.75;;;4.60;92.00;;;;;;4966861;28;20055;-68
2023/01/26 07:30:07;;;;;;;0.10;0.10;;;4.60;91.90;;;;;;4958324;28;20070;-68
2023/01/26 07:32:33;;;;;;;0.00;0.00;;;4.60;92.00;;;;;;4961614;28;20078;-68
2023/01/26 07:34:59;;;;;;;0.00;0.00;;;4.60;92.00;;;;;;4962809;28;21374;-67
2023/01/26 07:37:28;;;;;;;0.05;0.05;;;4.60;92.00;;;;;;4958536;28;20113;-65
2023/01/26 07:39:54;;;;;;;0.00;0.00;;;4.60;91.90;;;;;;4957568;28;20043;-65
2023/01/26 07:42:19;;;;;;;0.00;0.00;;;4.60;91.90;;;;;;4952285;28;20141;-64
2023/01/26 07:44:45;;;;;;;0.00;0.00;;;4.70;91.80;;;;;;4970515;28;20078;-64
2023/01/26 07:47:11;;;;;;;0.00;0.00;;;4.70;91.80;;;;;;4962870;28;20121;-65
2023/01/26 07:49:36;;;;;;;0.00;0.00;;;4.60;91.80;;;;;;4961631;28;20043;-64
2023/01/26 07:52:03;;;;;;;0.00;0.00;;;4.60;91.90;;;;;;4959264;28;20047;-64
2023/01/26 07:54:28;;;;;;;0.00;0.00;;;4.60;91.90;;;;;;4966775;28;20038;-64
2023/01/26 07:56:54;;;;;;;0.55;0.55;;;4.60;91.90;;;;;;4960819;28;20047;-64
2023/01/26 07:59:20;;;;;;;0.00;0.00;;;4.60;91.80;;;;;;4967889;28;20126;-64
2023/01/26 08:01:48;;;;;;;0.00;0.00;;;4.60;91.80;;;;;;4968254;28;20039;-64
2023/01/26 08:04:14;;;;;;;0.10;0.10;;;4.60;91.80;;;;;;4967227;28;20077;-65
2023/01/26 08:06:39;;;;;;;0.05;0.05;;;4.50;91.80;;;;;;4966100;28;20093;-64
2023/01/26 08:09:05;;;;;;;0.00;0.00;;;4.60;91.80;;;;;;4967836;28;20089;-64
2023/01/26 08:11:30;;;;;;;0.00;0.00;;;4.60;91.80;;;;;;4945183;28;20035;-64
2023/01/26 08:13:56;;;;;;;0.00;0.00;;;4.60;91.80;;;;;;4951171;28;20051;-64
2023/01/26 08:16:22;;;;;;;0.00;0.00;;;4.60;91.80;;;;;;4967848;28;20043;-64
2023/01/26 08:18:48;;;;;;;0.10;0.10;;;4.60;91.80;;;;;;4968414;28;20055;-64
2023/01/26 08:21:15;;;;;;;0.00;0.00;;;4.60;91.80;;;;;;4967811;28;20514;-64
2023/01/26 08:23:40;;;;;;;0.00;0.00;;;4.60;91.90;;;;;;4967328;28;20061;-64
2023/01/26 08:26:09;;;;;;;0.00;0.00;;;4.60;91.80;;;;;;4967299;28;20043;-64
2023/01/26 08:28:35;;;;;;;0.00;0.00;;;4.60;91.90;;;;;;4967701;28;20102;-65
2023/01/26 08:31:18;;;;;;;0.00;0.00;;;4.60;91.90;;;;;;4967496;28;20050;-65
2023/01/26 08:33:46;;;;;;;0.00;0.00;;;4.60;91.90;;;;;;4967472;28;20050;-67
2023/01/26 08:36:13;;;;;;;0.00;0.00;;;4.60;91.90;;;;;;4950622;28;20042;-64
2023/01/26 08:38:39;;;;;;;0.28;0.28;;;4.70;91.90;;;;;;4966969;28;20062;-64
2023/01/26 08:41:06;;;;;;;0.00;0.00;;;4.70;91.90;;;;;;4967797;28;20043;-65
2023/01/26 08:43:31;;;;;;;0.00;0.00;;;4.70;91.90;;;;;;4967553;28;20046;-64
2023/01/26 08:45:57;;;;;;;0.00;0.00;;;4.80;92.00;;;;;;4968325;28;20046;-64
2023/01/26 08:48:23;;;;;;;11.10;2.53;;;4.80;91.90;;;;;;4968073;28;20035;-64
2023/01/26 08:50:54;;;;;;;0.00;0.00;;;4.80;91.90;;;;;;4967719;28;20039;-65
2023/01/26 08:53:19;;;;;;;0.00;0.00;;;4.90;91.90;;;;;;4966771;28;20057;-65
2023/01/26 08:55:45;;;;;;;0.00;0.00;;;4.90;91.80;;;;;;4951013;28;20046;-65
2023/01/26 08:58:10;;;;;;;0.00;0.00;;;4.90;91.80;;;;;;4967774;28;20050;-65
2023/01/26 09:00:36;;;;;;;0.00;0.00;;;4.90;91.80;;;;;;4950531;28;20149;-65
2023/01/26 09:03:03;;;;;;;0.00;0.00;;;5.00;91.80;;;;;;4967290;28;20156;-65
2023/01/26 09:05:34;;;;;;;0.00;0.00;;;5.10;91.80;;;;;;4966451;28;20042;-65
2023/01/26 09:07:59;;;;;;;0.00;0.00;;;5.00;91.80;;;;;;4933498;28;20073;-65
2023/01/26 09:10:26;;;;;;;0.00;0.00;;;5.10;91.90;;;;;;4968069;28;20497;-64
2023/01/26 09:12:51;;;;;;;0.38;0.38;;;5.10;91.90;;;;;;4971205;28;20051;-64
2023/01/26 09:15:17;;;;;;;0.00;0.00;;;5.00;91.90;;;;;;4968454;28;20039;-64
2023/01/26 09:17:42;;;;;;;0.10;0.10;;;5.10;91.90;;;;;;4970490;28;20049;-65
2023/01/26 09:20:11;;;;;;;0.00;0.00;;;5.10;91.90;;;;;;4970296;28;20055;-63
2023/01/26 09:22:37;;;;;;;0.00;0.00;;;5.10;91.90;;;;;;4970635;28;20514;-64
2023/01/26 09:25:03;;;;;;;0.00;0.00;;;5.10;91.90;;;;;;4970580;28;20031;-64
2023/01/26 09:27:29;;;;;;;0.20;0.20;;;5.00;91.90;;;;;;4970316;28;20178;-63
2023/01/26 09:29:54;;;;;;;0.00;0.00;;;5.10;91.90;;;;;;4970121;28;20531;-64
2023/01/26 09:32:21;;;;;;;0.35;0.35;;;5.10;91.90;;;;;;4952593;28;20091;-64
2023/01/26 09:34:46;;;;;;;0.00;0.00;;;5.10;91.90;;;;;;4952470;28;20811;-64
2023/01/26 09:37:12;;;;;;;0.00;0.00;;;5.10;91.90;;;;;;4970458;28;20039;-64
2023/01/26 09:39:38;;;;;;;0.05;0.05;;;5.10;91.90;;;;;;4968513;28;20051;-64
2023/01/26 09:42:25;;;;;;;0.00;0.00;;;5.10;91.90;;;;;;4970249;28;20070;-65
2023/01/26 09:45:04;;;;;;;0.00;0.00;;;5.20;91.90;;;;;;4968653;28;20043;-65
2023/01/26 09:47:54;;;;;;;0.00;0.00;;;5.20;91.90;;;;;;4967707;28;20047;-65
2023/01/26 09:50:25;;;;;;;0.00;0.00;;;5.30;92.00;;;;;;4969995;28;20046;-64
2023/01/26 09:53:01;;;;;;;0.00;0.00;;;5.40;92.00;;;;;;4952469;28;20518;-64
2023/01/26 09:55:29;;;;;;;0.00;0.00;;;5.50;92.10;;;;;;4969640;28;20411;-64
2023/01/26 09:58:11;;;;;;;0.00;0.00;;;5.60;92.30;;;;;;4969775;28;20074;-64
2023/01/26 10:00:50;;;;;;;0.00;0.00;;;5.70;92.20;;;;;;4964881;28;20049;-64
2023/01/26 10:03:30;;;;;;;0.00;0.00;;;5.90;92.20;;;;;;4952404;28;20046;-64
2023/01/26 10:06:28;;;;;;;0.10;0.10;;;6.10;92.30;;;;;;4969602;28;20440;-65
2023/01/26 10:08:56;;;;;;;0.00;0.00;;;6.10;92.20;;;;;;4969817;28;20495;-65
2023/01/26 10:11:37;;;;;;;0.00;0.00;;;6.20;92.10;;;;;;4936660;28;20038;-64
2023/01/26 10:14:17;;;;;;;0.15;0.15;;;6.30;92.10;;;;;;4969723;28;20067;-64
2023/01/26 10:16:45;;;;;;;0.00;0.00;;;6.40;92.00;;;;;;4969166;28;20043;-65
2023/01/26 10:19:19;;;;;;;0.17;0.17;;;6.50;91.90;;;;;;4968866;28;20420;-64
2023/01/26 10:21:48;;;;;;;0.15;0.15;;;6.50;91.80;;;;;;4969701;28;20051;-65
2023/01/26 10:24:19;;;;;;;0.00;0.00;;;6.60;91.70;;;;;;4968641;28;20053;-64
2023/01/26 10:26:45;;;;;;;0.00;0.00;;;6.60;91.50;;;;;;4968155;28;20062;-65
2023/01/26 10:29:14;;;;;;;0.03;0.03;;;6.70;91.40;;;;;;4968673;28;20142;-66
2023/01/26 10:31:40;;;;;;;0.00;0.00;;;6.70;91.30;;;;;;4968614;28;20418;-67
2023/01/26 10:34:13;;;;;;;0.08;0.08;;;6.80;91.20;;;;;;4968978;28;20039;-67
2023/01/26 10:36:41;;;;;;;0.90;0.90;;;6.90;91.00;;;;;;4968914;28;20053;-66
2023/01/26 10:39:12;;;;;;;0.00;0.00;;;6.90;91.00;;;;;;4966726;28;20043;-67
2023/01/26 10:41:38;;;;;;;0.07;0.07;;;7.00;90.80;;;;;;4969520;28;20523;-67
2023/01/26 10:44:22;;;;;;;0.43;0.43;;;7.00;90.60;;;;;;4950689;28;20046;-67
2023/01/26 10:47:05;;;;;;;0.00;0.00;;;7.10;90.50;;;;;;4950687;28;20081;-66
2023/01/26 10:49:31;;;;;;;0.00;0.00;;;7.10;90.20;;;;;;4968453;28;20137;-66
2023/01/26 10:52:16;;;;;;;0.00;0.00;;;7.20;90.00;;;;;;4968728;28;20046;-66
2023/01/26 10:54:44;;;;;;;0.00;0.00;;;7.20;89.80;;;;;;4954339;28;20047;-69
2023/01/26 10:57:23;;;;;;;0.00;0.00;;;7.20;89.70;;;;;;4966641;28;20043;-64
2023/01/26 10:59:55;;;;;;;0.00;0.00;;;7.30;89.50;;;;;;4963472;28;20046;-64
2023/01/26 11:02:29;;;;;;;0.00;0.00;;;7.30;89.20;;;;;;4953212;29;20064;-64
2023/01/26 11:05:07;;;;;;;0.08;0.08;;;7.40;89.00;;;;;;4957572;28;20049;-64
2023/01/26 11:07:37;;;;;;;0.00;0.00;;;7.40;88.90;;;;;;4967214;28;20133;-65
2023/01/26 11:10:23;;;;;;;0.05;0.05;;;7.50;88.80;;;;;;4971034;28;20206;-65
2023/01/26 11:12:50;;;;;;;0.00;0.00;;;7.50;88.80;;;;;;4969297;28;20207;-65
2023/01/26 11:15:21;;;;;;;0.00;0.00;;;7.60;88.60;;;;;;4943740;28;20045;-65
2023/01/26 11:18:00;;;;;;;0.08;0.08;;;7.60;88.50;;;;;;4954708;28;20526;-65
2023/01/26 11:20:26;;;;;;;0.00;0.00;;;7.60;88.50;;;;;;4971895;28;20081;-66
2023/01/26 11:22:52;;;;;;;0.00;0.00;;;7.60;88.40;;;;;;4954509;28;20047;-65
2023/01/26 11:25:30;;;;;;;0.00;0.00;;;7.60;88.50;;;;;;4958751;28;20100;-66
2023/01/26 11:28:14;;;;;;;0.00;0.00;;;7.60;88.50;;;;;;4952782;28;20570;-65
2023/01/26 11:30:51;;;;;;;0.00;0.00;;;7.60;88.50;;;;;;4952661;28;20051;-65
2023/01/26 11:33:44;;;;;;;0.10;0.10;;;7.70;88.60;;;;;;4968923;28;20050;-65
2023/01/26 11:36:29;;;;;;;0.00;0.00;;;7.70;88.60;;;;;;4971542;28;20050;-65
2023/01/26 11:39:31;;;;;;;0.03;0.03;;;7.80;88.40;;;;;;4954523;28;20047;-65
2023/01/26 11:42:07;;;;;;;0.03;0.03;;;7.80;88.30;;;;;;4969599;28;20047;-66
2023/01/26 11:44:54;;;;;;;0.00;0.00;;;7.80;88.20;;;;;;4970420;28;20043;-66
2023/01/26 11:47:36;;;;;;;0.00;0.00;;;7.80;88.10;;;;;;4970374;28;20047;-65
2023/01/26 11:50:16;;;;;;;;;;;7.80;88.00;;;;;;4953706;28;20053;-65
2023/01/26 11:53:01;;;;;;;0.00;0.00;;;7.70;88.20;;;;;;4959288;28;19933;-65
2023/01/26 11:55:51;;;;;;;0.00;0.00;;;7.70;88.10;;;;;;4949158;28;20054;-65
2023/01/26 11:58:39;;;;;;;0.40;0.40;;;7.70;88.10;;;;;;4917673;28;20059;-65
2023/01/26 12:01:17;;;;;;;0.00;0.00;;;7.90;88.20;;;;;;4964782;28;20473;-66
2023/01/26 12:03:49;;;;;;;0.00;0.00;;;7.90;87.70;;;;;;4957017;28;20142;-64
2023/01/26 12:06:23;;;;;;;0.00;0.00;;;8.00;87.40;;;;;;4955874;28;20401;-65
2023/01/26 12:09:19;;;;;;;0.05;0.05;;;8.00;87.40;;;;;;4950429;28;20051;-65
2023/01/26 12:12:10;;;;;;;0.00;0.00;;;7.90;86.60;;;;;;4942524;29;20500;-65
2023/01/26 12:14:46;;;;;;;0.00;0.00;;;8.00;86.60;;;;;;4951033;28;20039;-65
2023/01/26 12:17:27;;;;;;;0.00;0.00;;;8.00;86.60;;;;;;4949892;29;20438;-65
2023/01/26 12:20:11;;;;;;;0.00;0.00;;;8.00;86.50;;;;;;4933250;28;20081;-64
2023/01/26 12:22:41;;;;;;;0.00;0.00;;;8.10;86.60;;;;;;4962362;28;20043;-65
2023/01/26 12:25:28;;;;;;;0.00;0.00;;;8.10;86.10;;;;;;4959345;28;20055;-66
2023/01/26 12:28:09;;;;;;;0.00;0.00;;;8.20;85.50;;;;;;4965018;28;20138;-65
2023/01/26 12:30:58;;;;;;;0.00;0.00;;;8.10;85.20;;;;;;4950203;28;20047;-65
2023/01/26 12:33:24;;;;;;;0.00;0.00;;;8.10;85.30;;;;;;4950235;28;20174;-65
2023/01/26 12:36:10;;;;;;;0.03;0.03;;;8.10;85.10;;;;;;4949962;28;20517;-65
2023/01/26 12:38:54;;;;;;;0.00;0.00;;;8.00;85.30;;;;;;4957649;28;20039;-64
2023/01/26 12:41:57;;;;;;;0.00;0.00;;;7.90;85.60;;;;;;4968034;28;20050;-65
2023/01/26 12:44:39;;;;;;;0.00;0.00;;;7.90;85.60;;;;;;4968931;28;20529;-64
2023/01/26 12:47:17;;;;;;;0.55;0.47;;;7.80;85.90;;;;;;4956111;28;20066;-64
2023/01/26 12:49:59;;;;;;;0.00;0.00;;;7.80;86.10;;;;;;4972874;28;20051;-64
2023/01/26 12:52:53;;;;;;;0.00;0.00;;;7.90;86.30;;;;;;4973014;28;20118;-64
2023/01/26 12:55:44;;;;;;;0.40;0.40;;;8.10;86.10;;;;;;4972232;28;20066;-65
2023/01/26 12:58:18;;;;;;;0.08;0.08;;;8.10;86.10;;;;;;4971318;28;20046;-65
2023/01/26 13:01:09;;;;;;;0.00;0.00;;;8.10;86.00;;;;;;4972033;28;20051;-65
2023/01/26 13:03:41;;;;;;;0.00;0.00;;;8.10;86.00;;;;;;4973340;28;20106;-65
2023/01/26 13:06:09;;;;;;;0.00;0.00;;;8.10;85.80;;;;;;4972281;28;20054;-65
2023/01/26 13:08:34;;;;;;;0.20;0.20;;;8.20;84.60;;;;;;4961810;28;20042;-64
2023/01/26 13:11:06;;;;;;;0.30;0.30;;;8.20;84.70;;;;;;4949809;28;20051;-68
2023/01/26 13:13:34;;;;;;;0.00;0.00;;;8.10;84.70;;;;;;4964998;28;20050;-66
2023/01/26 13:16:15;;;;;;;0.00;0.00;;;8.10;85.00;;;;;;4941797;28;20417;-70
2023/01/26 13:19:27;;;;;;;0.00;0.00;;;8.10;84.90;;;;;;4968473;28;20047;-70
2023/01/26 13:21:53;;;;;;;0.00;0.00;;;8.10;85.00;;;;;;4966783;28;20450;-69
2023/01/26 13:24:24;;;;;;;0.00;0.00;;;8.10;84.90;;;;;;4968564;28;20039;-69
2023/01/26 13:26:52;;;;;;;0.00;0.00;;;8.10;84.90;;;;;;4952932;28;20145;-69
2023/01/26 13:29:31;;;;;;;0.10;0.10;;;8.10;85.30;;;;;;4962556;28;20043;-69
2023/01/26 13:32:12;;;;;;;0.73;0.73;;;8.10;85.40;;;;;;4968123;28;20041;-69
2023/01/26 13:34:47;;;;;;;0.00;0.00;;;8.10;85.10;;;;;;4969764;28;20078;-69
2023/01/26 13:37:25;;;;;;;0.00;0.00;;;8.10;85.10;;;;;;4969876;28;20062;-69
2023/01/26 13:39:59;;;;;;;0.00;0.00;;;8.10;84.40;;;;;;4969918;28;20035;-69
2023/01/26 13:42:32;;;;;;;0.00;0.00;;;8.10;83.80;;;;;;4970461;28;20519;-69
2023/01/26 13:45:07;;;;;;;0.00;0.00;;;8.10;83.70;;;;;;4953316;28;20047;-69
2023/01/26 13:47:40;;;;;;;0.05;0.05;;;8.10;83.40;;;;;;4969862;28;20692;-69
2023/01/26 13:50:40;;;;;;;0.00;0.00;;;8.00;83.30;;;;;;4969344;28;20132;-69
2023/01/26 13:53:24;;;;;;;0.00;0.00;;;8.00;83.60;;;;;;4969125;28;20057;-68
2023/01/26 13:55:55;;;;;;;0.00;0.00;;;8.00;83.70;;;;;;4967546;28;20049;-68
2023/01/26 13:58:22;;;;;;;0.17;0.17;;;7.90;83.90;;;;;;4969832;28;20045;-68
2023/01/26 14:01:17;;;;;;;0.00;0.00;;;8.00;83.30;;;;;;4969363;28;20046;-69